Time;durP1;ratioP1;P1;durP2;ratioP2;P2;SDS_P1;SDS_P2;PMS_P1;PMS_P2;Temp;Humidity;BMP_temperature;BMP_pressure;BME280_temperature;BME280_humidity;BME280_pressure;Samples;Min_cycle;Max_cycle;Signal;HPM_P1;HPM_P2
2022/12/25 00:00:09;;;;;;;19.38;9.55;;;;;;;11.84;73.47;100700.78;5050344;28;20033;-76
2022/12/25 00:02:34;;;;;;;17.65;10.68;;;;;;;11.86;73.35;100693.41;5049533;28;20037;-76
2022/12/25 00:05:00;;;;;;;14.52;9.48;;;;;;;11.80;73.43;100698.50;5048020;28;20090;-74
2022/12/25 00:07:25;;;;;;;14.40;9.40;;;;;;;11.83;72.85;100712.53;5048098;28;20052;-74
2022/12/25 00:09:51;;;;;;;22.15;10.15;;;;;;;11.81;73.46;100717.22;5047773;28;20094;-73
2022/12/25 00:12:18;;;;;;;15.13;10.57;;;;;;;11.74;73.64;100715.19;5048813;28;20178;-75
2022/12/25 00:14:43;;;;;;;15.32;10.38;;;;;;;11.75;73.59;100712.34;5047509;28;20025;-74
2022/12/25 00:17:09;;;;;;;14.35;10.05;;;;;;;11.72;73.73;100707.22;5047596;28;20029;-76
2022/12/25 00:19:34;;;;;;;17.02;10.20;;;;;;;11.79;73.63;100713.81;5052763;28;20503;-75
2022/12/25 00:22:00;;;;;;;16.85;10.95;;;;;;;11.81;73.44;100732.53;5063091;28;20035;-75
2022/12/25 00:24:25;;;;;;;23.13;10.93;;;;;;;11.79;73.49;100729.97;5053101;28;20105;-74
2022/12/25 00:26:50;;;;;;;16.50;10.95;;;;;;;11.82;73.22;100735.09;5053170;28;20023;-74
2022/12/25 00:29:16;;;;;;;21.60;12.52;;;;;;;11.80;73.07;100747.81;5053966;28;20115;-73
2022/12/25 00:31:41;;;;;;;13.65;10.25;;;;;;;11.50;73.19;100715.34;5052901;28;20079;-74
2022/12/25 00:34:07;;;;;;;16.30;11.10;;;;;;;11.77;73.49;100747.25;5052664;28;20035;-75
2022/12/25 00:36:32;;;;;;;18.48;11.95;;;;;;;11.82;72.75;100758.50;5051606;28;20037;-74
2022/12/25 00:38:58;;;;;;;26.50;12.02;;;;;;;11.86;72.28;100747.31;5051481;28;20187;-74
2022/12/25 00:44:11;;;;;;;19.90;11.40;;;;;;;11.85;72.20;100737.53;5051729;28;20097;-73
2022/12/25 00:46:37;;;;;;;16.20;10.50;;;;;;;11.84;72.26;100749.28;5048997;28;20036;-74
2022/12/25 00:49:02;;;;;;;19.73;12.27;;;;;;;11.82;71.71;100745.88;5051385;28;20049;-75
2022/12/25 00:51:27;;;;;;;20.88;10.95;;;;;;;11.83;72.41;100736.78;5051233;28;20021;-75
2022/12/25 00:53:53;;;;;;;20.25;12.45;;;;;;;11.81;72.23;100736.06;5051511;28;20098;-75
2022/12/25 00:56:18;;;;;;;18.75;12.07;;;;;;;11.83;72.16;100736.78;5051035;28;20021;-74
2022/12/25 00:58:44;;;;;;;15.75;10.82;;;;;;;11.88;71.93;100744.50;5051470;28;20318;-74
2022/12/25 01:01:10;;;;;;;15.55;11.23;;;;;;;11.89;72.41;100738.13;5051559;28;20037;-73
2022/12/25 01:03:36;;;;;;;20.77;11.82;;;;;;;11.86;71.90;100736.53;5051288;28;20040;-75
2022/12/25 01:06:04;;;;;;;24.65;12.32;;;;;;;11.92;71.29;100744.13;5051996;28;20021;-75
2022/12/25 01:08:32;;;;;;;18.98;11.80;;;;;;;11.92;71.64;100746.81;5033556;28;20519;-74
2022/12/25 01:11:03;;;;;;;20.85;12.38;;;;;;;11.81;71.91;100746.84;5053179;28;20036;-74
2022/12/25 01:13:30;;;;;;;20.52;12.38;;;;;;;11.92;71.19;100757.59;5053970;28;20028;-74
2022/12/25 01:15:56;;;;;;;18.33;12.15;;;;;;;11.94;71.25;100760.16;5057457;28;20056;-74
2022/12/25 01:18:23;;;;;;;16.75;10.75;;;;;;;11.90;71.64;100758.69;5062386;28;20028;-74
2022/12/25 01:20:48;;;;;;;21.67;12.40;;;;;;;11.70;70.97;100719.97;5063962;28;20039;-75
2022/12/25 01:23:14;;;;;;;18.05;11.88;;;;;;;11.82;71.41;100762.03;5062813;28;20064;-76
2022/12/25 01:25:40;;;;;;;18.67;11.63;;;;;;;11.79;71.39;100770.41;5058249;28;20124;-75
2022/12/25 01:28:05;;;;;;;17.98;12.05;;;;;;;11.78;71.19;100757.03;5051440;28;20078;-73
2022/12/25 01:30:32;;;;;;;22.33;12.95;;;;;;;11.51;70.93;100724.28;5051390;28;20485;-75
2022/12/25 01:32:57;;;;;;;25.85;13.30;;;;;;;11.74;71.34;100759.13;5051419;28;20029;-73
2022/12/25 01:35:23;;;;;;;17.60;11.23;;;;;;;11.71;71.60;100754.00;5050774;28;20028;-74
2022/12/25 01:37:49;;;;;;;17.40;12.18;;;;;;;11.71;71.67;100759.38;5050829;28;20031;-73
2022/12/25 01:40:15;;;;;;;16.70;11.98;;;;;;;11.71;71.68;100759.38;5050470;28;20508;-74
2022/12/25 01:42:40;;;;;;;23.65;13.20;;;;;;;11.69;71.36;100761.31;5050648;28;20036;-74
2022/12/25 01:45:30;;;;;;;23.35;13.68;;;;;;;11.67;71.80;100762.44;5050303;28;20025;-76
2022/12/25 01:47:56;;;;;;;22.15;13.35;;;;;;;11.62;71.68;100753.91;5050409;28;20029;-73
2022/12/25 01:50:22;;;;;;;25.55;13.40;;;;;;;11.63;71.77;100769.94;5050065;28;20057;-75
2022/12/25 01:52:49;;;;;;;22.27;13.45;;;;;;;11.26;71.52;100726.34;5050563;28;20179;-74
2022/12/25 01:55:15;;;;;;;19.42;12.95;;;;;;;11.46;71.09;100759.72;5033162;28;20025;-76
2022/12/25 01:57:41;;;;;;;20.80;12.32;;;;;;;11.42;71.25;100777.09;5033415;28;20070;-74
2022/12/25 02:00:08;;;;;;;16.73;12.45;;;;;;;11.34;71.61;100769.63;5033472;28;20773;-75
2022/12/25 02:02:35;;;;;;;20.45;12.90;;;;;;;11.30;71.73;100764.63;5031202;28;20037;-74
2022/12/25 02:05:08;;;;;;;24.80;13.82;;;;;;;11.32;71.85;100776.13;5029975;28;20033;-75
2022/12/25 02:07:36;;;;;;;22.70;13.18;;;;;;;11.33;71.77;100783.25;5048567;28;20051;-74
2022/12/25 02:10:01;;;;;;;19.50;12.68;;;;;;;11.35;71.60;100781.25;5039052;28;20585;-75
2022/12/25 02:12:29;;;;;;;20.55;12.77;;;;;;;11.21;72.14;100776.16;5030085;28;20038;-74
2022/12/25 02:14:58;;;;;;;23.85;12.05;;;;;;;11.23;71.88;100779.56;5045484;28;20021;-73
2022/12/25 02:17:32;;;;;;;19.40;13.18;;;;;;;11.20;71.44;100785.22;5047955;28;20108;-74
2022/12/25 02:20:07;;;;;;;18.90;12.52;;;;;;;11.05;72.05;100773.00;5050110;28;20071;-74
2022/12/25 02:22:56;;;;;;;24.92;13.85;;;;;;;11.16;71.82;100789.16;5048355;28;20036;-76
2022/12/25 02:25:21;;;;;;;18.40;12.75;;;;;;;11.05;71.68;100800.78;5036227;28;20037;-76
2022/12/25 02:28:08;;;;;;;18.58;12.77;;;;;;;11.04;71.74;100801.75;5037198;28;20032;-74
2022/12/25 02:31:00;;;;;;;18.27;12.50;;;;;;;11.03;71.82;100802.75;5043113;28;20044;-74
2022/12/25 02:36:23;;;;;;;23.98;13.70;;;;;;;11.03;71.96;100800.06;5034534;28;20032;-74
2022/12/25 02:41:42;;;;;;;21.35;13.77;;;;;;;10.86;71.74;100758.34;5040414;28;20036;-74
2022/12/25 03:06:42;;;;;;;23.55;14.07;;;;;;;10.93;71.30;100843.00;5048852;28;20189;-75
2022/12/25 03:12:12;;;;;;;21.17;14.15;;;;;;;10.96;70.96;100836.50;5043748;28;20040;-74
2022/12/25 03:17:38;;;;;;;23.40;15.95;;;;;;;10.91;70.96;100834.19;5045429;28;20045;-73
2022/12/25 03:28:19;;;;;;;25.35;14.82;;;;;;;10.93;70.69;100840.28;5049289;28;20091;-74
2022/12/25 03:31:10;;;;;;;23.63;14.05;;;;;;;10.99;70.19;100841.63;5050858;28;20046;-75
2022/12/25 03:37:29;;;;;;;20.20;13.20;;;;;;;10.96;70.29;100841.03;5046626;28;20072;-74
2022/12/25 04:38:00;;;;;;;24.42;16.00;;;;;;;10.18;70.19;100897.34;5041936;28;20044;-74
2022/12/25 04:40:26;;;;;;;24.33;16.45;;;;;;;10.42;69.76;100933.13;5036366;28;20115;-75
2022/12/25 04:42:52;;;;;;;26.33;16.38;;;;;;;10.34;70.19;100930.13;5052266;28;20021;-75
2022/12/25 04:45:18;;;;;;;25.13;15.50;;;;;;;10.37;69.67;100941.53;5051597;28;20107;-74
2022/12/25 04:47:43;;;;;;;27.00;16.30;;;;;;;10.30;69.92;100951.00;5051913;28;20556;-75
2022/12/25 04:50:09;;;;;;;24.15;16.13;;;;;;;10.26;69.96;100954.06;5040714;28;20053;-75
2022/12/25 04:52:36;;;;;;;26.75;15.85;;;;;;;10.16;70.40;100958.41;5035816;28;20037;-76
2022/12/25 04:55:03;;;;;;;29.42;16.30;;;;;;;9.96;70.41;100934.81;5043934;28;20029;-76
2022/12/25 04:57:28;;;;;;;25.63;14.60;;;;;;;10.06;70.82;100962.72;5036521;28;20025;-75
2022/12/25 04:59:53;;;;;;;27.77;15.43;;;;;;;10.02;70.63;100969.28;5049013;28;20526;-75
2022/12/25 05:02:19;;;;;;;25.70;15.75;;;;;;;9.97;71.25;100974.16;5047279;28;20021;-75
2022/12/25 05:04:45;;;;;;;24.20;14.15;;;;;;;10.00;71.19;100979.31;5050099;28;20048;-75
2022/12/25 05:07:11;;;;;;;23.45;14.85;;;;;;;10.01;71.16;100967.56;5033751;28;20104;-74
2022/12/25 05:09:40;;;;;;;27.98;15.85;;;;;;;9.99;71.25;100972.19;5044534;28;20117;-75
2022/12/25 05:12:06;;;;;;;26.85;16.42;;;;;;;9.97;71.21;100971.47;5041979;28;20479;-76
2022/12/25 05:14:32;;;;;;;24.02;15.55;;;;;;;9.99;71.11;100973.06;5049843;28;20111;-75
2022/12/25 05:16:57;;;;;;;20.25;13.00;;;;;;;10.01;71.26;100981.00;5050246;28;20045;-75
2022/12/25 05:19:23;;;;;;;26.08;14.23;;;;;;;9.90;71.05;100978.25;5048432;28;20473;-75
2022/12/25 05:21:48;;;;;;;27.67;15.07;;;;;;;9.83;71.67;100984.06;5049828;28;20037;-76
2022/12/25 05:24:14;;;;;;;20.52;13.40;;;;;;;9.63;71.56;100944.34;5049718;28;20541;-75
2022/12/25 05:26:39;;;;;;;31.48;14.23;;;;;;;9.87;71.32;100981.16;5037572;28;20472;-74
2022/12/25 05:29:04;;;;;;;23.02;13.20;;;;;;;9.85;71.65;100984.81;5049938;28;20029;-75
2022/12/25 05:31:30;;;;;;;22.92;14.50;;;;;;;9.62;71.41;100952.53;5049690;28;20514;-75
2022/12/25 05:33:55;;;;;;;30.98;19.77;;;;;;;9.86;71.49;100982.97;5049392;28;20969;-76
2022/12/25 05:36:21;;;;;;;27.77;17.55;;;;;;;9.92;71.26;100989.72;5050059;28;20021;-76
2022/12/25 05:38:46;;;;;;;24.30;14.15;;;;;;;9.95;70.96;100992.19;5056732;28;20484;-75
2022/12/25 05:41:12;;;;;;;25.38;13.88;;;;;;;9.80;71.07;100968.19;5057060;28;20507;-75
2022/12/25 05:43:37;;;;;;;20.55;14.35;;;;;;;9.67;70.45;100970.03;5049918;28;20047;-74
2022/12/25 05:46:05;;;;;;;31.23;14.02;;;;;;;9.81;70.79;101001.28;5049276;28;20052;-74
2022/12/25 05:48:32;;;;;;;23.53;11.87;;;;;;;9.63;70.95;100981.94;5006214;28;1236257;-74
2022/12/25 05:51:02;;;;;;;23.33;12.65;;;;;;;9.58;71.17;100978.75;5050367;28;20079;-75
2022/12/25 05:53:27;;;;;;;22.65;12.60;;;;;;;9.76;70.92;101019.53;5050428;28;20064;-76
2022/12/25 05:55:52;;;;;;;27.58;13.48;;;;;;;9.66;71.02;101005.06;5049991;28;20016;-74
2022/12/25 05:58:18;;;;;;;15.63;11.63;;;;;;;9.46;71.66;100995.72;5047994;28;20484;-76
2022/12/25 06:00:43;;;;;;;18.70;10.90;;;;;;;9.49;71.60;101006.25;5048302;28;20525;-75
2022/12/25 06:03:09;;;;;;;20.25;13.02;;;;;;;9.32;71.86;100982.44;5049232;28;20035;-75
2022/12/25 06:05:37;;;;;;;22.08;12.80;;;;;;;9.51;71.89;101024.94;5048122;28;20025;-76
2022/12/25 06:08:03;;;;;;;22.50;13.65;;;;;;;9.48;72.34;101035.91;5059686;28;20131;-75
2022/12/25 06:10:28;;;;;;;25.30;15.57;;;;;;;9.49;72.36;101041.16;5049766;28;20935;-77
2022/12/25 06:12:54;;;;;;;23.90;14.80;;;;;;;9.45;72.31;101036.94;5048039;28;20027;-76
2022/12/25 06:15:19;;;;;;;25.95;14.80;;;;;;;9.47;72.06;101048.47;5030277;28;20041;-75
2022/12/25 06:17:44;;;;;;;31.55;16.92;;;;;;;9.52;71.97;101057.03;5046827;28;20032;-74
2022/12/25 06:20:10;;;;;;;26.58;16.23;;;;;;;9.51;72.08;101063.38;5048537;28;20400;-75
2022/12/25 06:22:35;;;;;;;30.65;16.92;;;;;;;9.48;71.85;101063.59;5048462;28;20507;-73
2022/12/25 06:25:01;;;;;;;29.25;17.33;;;;;;;9.50;71.78;101072.41;5047471;28;20025;-75
2022/12/25 06:27:27;;;;;;;25.05;16.35;;;;;;;9.51;71.58;101063.38;5046834;28;20025;-75
2022/12/25 06:29:52;;;;;;;28.42;16.80;;;;;;;9.58;71.47;101078.09;5048653;28;20044;-74
2022/12/25 06:32:18;;;;;;;33.47;18.85;;;;;;;9.48;71.56;101047.47;5048308;28;20484;-75
2022/12/25 06:34:43;;;;;;;41.08;17.48;;;;;;;9.68;71.80;101065.75;5046840;28;20035;-76
2022/12/25 06:37:09;;;;;;;29.67;16.30;;;;;;;9.82;71.52;101079.03;5048276;28;20064;-75
2022/12/25 06:39:34;;;;;;;42.53;16.95;;;;;;;9.83;71.01;101072.72;5048510;28;20052;-76
2022/12/25 06:42:00;;;;;;;26.70;16.05;;;;;;;9.80;70.99;101059.50;5052509;28;20028;-75
2022/12/25 06:44:25;;;;;;;23.88;14.25;;;;;;;9.95;71.24;101086.22;5051131;28;20096;-75
2022/12/25 06:46:53;;;;;;;28.20;15.13;;;;;;;9.98;70.81;101089.56;5044882;28;20029;-74
2022/12/25 06:49:20;;;;;;;23.33;15.43;;;;;;;10.02;70.65;101088.38;5059972;28;20072;-74
2022/12/25 06:51:46;;;;;;;24.73;15.27;;;;;;;9.87;70.69;101075.19;5048253;28;20361;-75
2022/12/25 06:54:11;;;;;;;19.27;13.45;;;;;;;10.02;71.05;101103.66;5048196;28;20044;-73
2022/12/25 06:56:37;;;;;;;28.80;16.05;;;;;;;10.10;70.81;101103.94;5047934;28;20081;-75
2022/12/25 06:59:08;;;;;;;29.85;16.25;;;;;;;10.13;70.43;101104.63;5044421;28;20040;-75
2022/12/25 07:01:46;;;;;;;33.08;16.23;;;;;;;10.14;70.52;101116.25;5045033;28;20020;-74
2022/12/25 07:04:19;;;;;;;27.58;16.80;;;;;;;10.12;70.45;101107.41;5045767;28;20075;-74
2022/12/25 07:06:45;;;;;;;25.80;16.52;;;;;;;10.12;70.27;101118.16;5049333;28;20182;-75
2022/12/25 07:09:11;;;;;;;35.50;17.98;;;;;;;10.21;70.90;101118.34;5046280;28;20112;-75
2022/12/25 07:11:36;;;;;;;31.15;16.77;;;;;;;10.21;70.68;101120.22;5048944;28;20442;-74
2022/12/25 07:14:02;;;;;;;36.60;16.95;;;;;;;10.22;70.87;101129.97;5048143;28;20043;-73
2022/12/25 07:16:27;;;;;;;26.48;15.85;;;;;;;10.16;70.93;101125.03;5055770;28;20013;-74
2022/12/25 07:18:53;;;;;;;23.48;14.02;;;;;;;10.12;70.56;101093.97;5056868;28;20100;-75
2022/12/25 07:21:20;;;;;;;26.25;15.98;;;;;;;10.36;70.55;101141.47;5058200;28;20040;-75
2022/12/25 07:23:47;;;;;;;24.67;16.20;;;;;;;10.26;71.23;101120.72;5049413;28;20030;-75
2022/12/25 07:26:13;;;;;;;35.30;18.58;;;;;;;10.34;71.33;101134.47;5038713;28;20323;-75
2022/12/25 07:28:39;;;;;;;33.13;18.48;;;;;;;10.39;71.92;101132.31;5046307;28;20602;-76
2022/12/25 07:31:08;;;;;;;30.85;19.02;;;;;;;10.39;71.48;101132.31;5043682;28;20040;-75
2022/12/25 07:33:34;;;;;;;36.95;18.17;;;;;;;10.46;71.77;101135.44;5041247;28;20029;-75
2022/12/25 07:36:00;;;;;;;29.27;18.05;;;;;;;10.49;71.76;101136.03;5042256;28;20306;-76
2022/12/25 07:38:26;;;;;;;25.70;16.90;;;;;;;10.55;71.76;101122.16;5045414;28;20103;-76
2022/12/25 07:40:52;;;;;;;30.95;17.00;;;;;;;10.57;71.75;101124.72;5033169;28;20029;-76
2022/12/25 07:43:18;;;;;;;23.58;16.15;;;;;;;10.65;71.72;101135.78;5053068;28;20089;-79
2022/12/25 07:45:44;;;;;;;31.48;17.20;;;;;;;10.65;71.81;101128.56;5057586;28;20098;-77
2022/12/25 07:48:09;;;;;;;25.92;16.80;;;;;;;10.67;71.73;101142.75;5056630;28;20476;-78
2022/12/25 07:50:35;;;;;;;28.70;16.73;;;;;;;10.57;71.69;101105.91;5048869;28;20521;-77
2022/12/25 07:53:01;;;;;;;31.27;16.25;;;;;;;10.71;72.06;101128.13;5047298;28;20028;-75
2022/12/25 07:55:26;;;;;;;25.45;17.05;;;;;;;10.48;71.87;101094.00;5049453;28;20032;-76
2022/12/25 07:57:52;;;;;;;30.88;17.83;;;;;;;10.71;71.54;101122.75;5048691;28;20025;-76
2022/12/25 08:00:18;;;;;;;31.38;15.90;;;;;;;10.81;71.61;101123.78;5047778;28;20420;-76
2022/12/25 08:02:43;;;;;;;38.17;20.15;;;;;;;10.90;71.77;101131.16;5048188;28;20508;-76
2022/12/25 08:05:09;;;;;;;40.08;20.08;;;;;;;10.72;71.40;101097.56;5048051;28;20025;-76
2022/12/25 08:07:35;;;;;;;32.70;19.63;;;;;;;10.88;71.46;101129.56;5043324;28;20385;-75
2022/12/25 08:10:01;;;;;;;29.73;17.83;;;;;;;11.09;71.50;101137.84;5048597;28;20071;-76
2022/12/25 08:12:27;;;;;;;27.23;17.33;;;;;;;11.14;70.56;101133.84;5045180;28;20244;-77
2022/12/25 08:14:52;;;;;;;29.48;17.58;;;;;;;10.95;69.86;101098.50;5038303;28;20037;-79
2022/12/25 08:17:18;;;;;;;28.92;17.73;;;;;;;11.15;69.85;101126.63;5045138;28;20441;-78
2022/12/25 08:19:43;;;;;;;30.58;19.00;;;;;;;11.11;70.29;101146.66;5047161;28;20488;-78
2022/12/25 08:22:08;;;;;;;27.88;17.25;;;;;;;11.23;70.10;101146.59;5046951;28;20048;-78
2022/12/25 08:24:34;;;;;;;30.52;16.50;;;;;;;10.90;69.68;101106.94;5047385;28;20048;-77
2022/12/25 08:26:59;;;;;;;32.30;18.02;;;;;;;10.99;69.34;101126.06;5047857;28;20056;-78
2022/12/25 08:29:27;;;;;;;32.30;19.00;;;;;;;11.10;69.73;101147.66;5048871;28;20055;-77
2022/12/25 08:31:54;;;;;;;30.27;18.17;;;;;;;11.03;70.22;101155.34;5032568;28;20052;-78
2022/12/25 08:34:19;;;;;;;38.28;18.25;;;;;;;11.05;69.97;101174.03;5034575;28;20108;-77
2022/12/25 08:36:45;;;;;;;29.77;18.02;;;;;;;11.01;69.85;101172.56;5047902;28;20140;-77
2022/12/25 08:39:10;;;;;;;31.55;17.23;;;;;;;10.88;70.20;101162.72;5035739;28;20044;-77
2022/12/25 08:41:36;;;;;;;32.08;18.73;;;;;;;11.01;70.38;101169.88;5048339;28;20025;-77
2022/12/25 08:44:05;;;;;;;28.45;18.67;;;;;;;11.07;70.22;101161.34;5051319;28;20038;-79
2022/12/25 08:46:31;;;;;;;36.38;21.55;;;;;;;11.07;69.97;101155.97;5057414;28;20472;-79
2022/12/25 08:48:57;;;;;;;42.10;23.08;;;;;;;10.92;69.92;101120.28;5055062;28;20108;-77
2022/12/25 08:51:23;;;;;;;42.33;20.77;;;;;;;11.24;69.73;101158.25;5048816;28;20029;-76
2022/12/25 08:53:51;;;;;;;32.60;20.05;;;;;;;11.27;70.14;101147.25;5039816;28;20037;-77
2022/12/25 08:56:17;;;;;;;34.05;19.83;;;;;;;11.14;69.20;101120.38;5036753;28;20480;-77
2022/12/25 08:58:43;;;;;;;32.17;17.48;;;;;;;11.51;69.40;101150.75;5031790;28;20033;-77
2022/12/25 09:01:10;;;;;;;30.95;16.05;;;;;;;11.70;69.11;101140.31;5047753;28;20419;-77
2022/12/25 09:03:35;;;;;;;30.63;16.58;;;;;;;11.77;68.29;101132.59;5043313;28;20041;-76
2022/12/25 09:06:12;;;;;;;28.52;15.02;;;;;;;12.06;67.38;101135.69;5042078;28;20041;-75
2022/12/25 09:08:38;;;;;;;20.45;14.52;;;;;;;12.14;66.71;101144.03;5030803;28;20096;-75
2022/12/25 09:11:06;;;;;;;28.30;15.70;;;;;;;12.28;66.31;101135.69;5031967;28;20026;-76
2022/12/25 09:13:33;;;;;;;26.98;15.80;;;;;;;12.40;65.83;101145.47;5031932;28;20029;-76
2022/12/25 09:15:58;;;;;;;26.60;15.38;;;;;;;12.50;65.05;101146.47;5045925;28;20104;-77
2022/12/25 09:18:25;;;;;;;34.45;15.98;;;;;;;12.47;64.70;101146.72;5038818;28;20064;-78
2022/12/25 09:21:01;;;;;;;30.02;17.02;;;;;;;12.59;64.93;101150.25;5027361;28;20124;-77
2022/12/25 09:23:27;;;;;;;27.13;15.77;;;;;;;12.44;64.76;101114.59;5050052;28;20025;-76
2022/12/25 09:25:53;;;;;;;28.85;15.48;;;;;;;12.65;64.48;101149.75;5051253;28;20056;-77
2022/12/25 09:28:20;;;;;;;33.83;17.95;;;;;;;12.70;64.59;101136.72;5051649;28;20057;-76
2022/12/25 09:30:49;;;;;;;31.77;15.93;;;;;;;12.87;64.32;101150.53;5051387;28;20492;-78
2022/12/25 09:33:15;;;;;;;31.00;16.35;;;;;;;12.72;63.92;101107.78;5038997;28;20029;-78
2022/12/25 09:35:40;;;;;;;25.88;15.20;;;;;;;13.02;63.73;101141.19;5056715;28;20045;-77
2022/12/25 09:38:05;;;;;;;29.38;14.95;;;;;;;13.17;63.31;101151.72;5050378;28;20032;-77
2022/12/25 09:40:31;;;;;;;31.48;15.88;;;;;;;13.24;62.96;101142.13;5046354;28;20070;-78
2022/12/25 09:42:58;;;;;;;25.88;17.10;;;;;;;13.40;62.53;101143.38;5041164;28;20090;-76
2022/12/25 09:45:28;;;;;;;35.42;15.38;;;;;;;13.44;62.22;101146.69;5043786;28;20031;-77
2022/12/25 09:47:57;;;;;;;34.42;16.27;;;;;;;13.51;61.89;101139.78;5054371;28;20033;-78
2022/12/25 09:50:27;;;;;;;26.10;15.82;;;;;;;13.42;61.97;101108.16;5057727;28;20053;-74
2022/12/25 09:53:08;;;;;;;34.35;17.02;;;;;;;13.78;61.42;101144.66;5055563;28;20020;-77
2022/12/25 09:55:40;;;;;;;26.02;14.73;;;;;;;13.87;61.19;101141.16;5049718;28;20021;-77
2022/12/25 09:58:11;;;;;;;26.85;13.45;;;;;;;13.93;60.51;101138.78;5050285;28;20021;-77
2022/12/25 10:00:46;;;;;;;23.35;13.65;;;;;;;13.88;60.15;101111.25;5050541;28;20021;-76
2022/12/25 10:03:34;;;;;;;19.80;12.80;;;;;;;14.04;59.54;101144.09;5050050;28;20031;-76
2022/12/25 10:06:23;;;;;;;20.73;12.85;;;;;;;13.87;59.45;101098.75;5046296;28;20459;-75
2022/12/25 10:08:55;;;;;;;24.95;13.90;;;;;;;14.19;59.11;101142.75;5050215;28;20078;-75
2022/12/25 10:11:37;;;;;;;28.30;13.48;;;;;;;14.13;58.68;101116.22;5049784;28;20036;-76
2022/12/25 10:14:15;;;;;;;21.08;12.75;;;;;;;14.30;58.87;101140.94;5049452;28;20021;-76
2022/12/25 10:17:08;;;;;;;21.40;13.70;;;;;;;14.05;59.14;101115.19;5049610;28;20164;-76
2022/12/25 10:19:37;;;;;;;;;;;;;;;14.29;59.08;101147.34;5046458;28;20361;-74
2022/12/25 10:22:11;;;;;;;23.20;13.48;;;;;;;14.34;58.98;101139.72;5048323;28;19917;-74
2022/12/25 10:24:46;;;;;;;30.73;14.70;;;;;;;14.30;58.72;101122.00;5049169;28;20484;-74
2022/12/25 10:27:25;;;;;;;24.25;12.27;;;;;;;14.62;58.29;101153.34;5060666;28;20470;-76
2022/12/25 10:29:55;;;;;;;21.17;12.35;;;;;;;14.70;57.31;101152.66;5050571;28;20072;-76
2022/12/25 10:32:21;;;;;;;33.90;14.43;;;;;;;14.65;57.48;101149.50;5050809;28;20081;-76
2022/12/25 10:34:47;;;;;;;23.85;12.23;;;;;;;14.70;57.29;101152.66;5049425;28;20049;-76
2022/12/25 10:37:13;;;;;;;21.85;11.88;;;;;;;14.71;57.10;101154.34;5049222;28;20032;-75
2022/12/25 10:39:39;;;;;;;24.75;13.35;;;;;;;14.75;56.78;101142.25;5048514;28;20029;-76
2022/12/25 10:42:19;;;;;;;21.90;11.65;;;;;;;14.88;56.54;101153.69;5040250;28;20029;-75
2022/12/25 10:45:04;;;;;;;12.40;7.90;;;;;;;14.98;54.06;101159.97;5029840;28;20033;-76
2022/12/25 10:47:39;;;;;;;19.25;8.68;;;;;;;14.89;53.64;101135.59;5046251;28;20044;-74
2022/12/25 10:50:09;;;;;;;16.77;7.28;;;;;;;14.85;53.10;101123.31;5049960;28;20064;-75
2022/12/25 10:52:45;;;;;;;17.17;8.15;;;;;;;15.08;52.89;101155.44;5051215;28;20036;-75
2022/12/25 10:55:12;;;;;;;19.73;7.65;;;;;;;15.04;52.50;101145.91;5050229;28;20099;-75
2022/12/25 10:57:44;;;;;;;23.67;8.20;;;;;;;14.95;52.67;101141.28;5053868;28;20027;-77
2022/12/25 11:00:21;;;;;;;17.38;7.95;;;;;;;15.14;52.55;101157.56;5048512;28;20024;-74
2022/12/25 11:02:48;;;;;;;13.40;7.53;;;;;;;15.22;51.70;101168.59;5038874;28;20095;-76
2022/12/25 11:05:24;;;;;;;23.88;8.93;;;;;;;15.27;51.96;101163.59;5028995;28;20037;-74
2022/12/25 11:07:55;;;;;;;23.98;7.35;;;;;;;15.29;50.59;101152.59;5029085;28;20075;-74
2022/12/25 11:10:37;;;;;;;23.30;6.27;;;;;;;15.45;49.87;101169.16;5029132;28;20439;-75
2022/12/25 11:13:06;;;;;;;7.07;5.53;;;;;;;15.38;49.22;101164.47;5029011;28;20033;-74
2022/12/25 11:15:41;;;;;;;15.30;5.55;;;;;;;15.42;49.53;101174.00;5029006;28;20131;-75
2022/12/25 11:18:18;;;;;;;12.43;6.32;;;;;;;15.40;49.65;101176.00;5029126;28;20108;-74
2022/12/25 11:21:12;;;;;;;10.38;5.53;;;;;;;15.41;49.78;101170.41;5028765;28;20521;-73
2022/12/25 11:23:44;;;;;;;12.00;6.18;;;;;;;15.48;49.70;101176.16;5028877;28;20034;-75
2022/12/25 11:26:10;;;;;;;10.40;6.35;;;;;;;15.51;49.29;101170.44;5028708;28;20026;-75
2022/12/25 11:28:39;;;;;;;12.63;6.38;;;;;;;15.53;49.75;101163.06;5028847;28;20413;-75
2022/12/25 11:31:06;;;;;;;13.98;5.70;;;;;;;15.63;48.51;101169.31;5028678;28;20473;-76
2022/12/25 11:33:38;;;;;;;6.82;4.45;;;;;;;15.71;48.28;101186.59;5028772;28;20044;-75
2022/12/25 11:36:16;;;;;;;15.30;6.45;;;;;;;15.68;48.52;101158.91;5028704;28;20033;-74
2022/12/25 11:38:41;;;;;;;23.58;6.28;;;;;;;15.57;48.20;101148.19;5028617;28;20507;-76
2022/12/25 11:41:09;;;;;;;12.63;5.40;;;;;;;15.74;48.51;101182.72;5028653;28;20018;-75
2022/12/25 11:43:40;;;;;;;12.68;6.22;;;;;;;15.79;48.38;101180.44;5028835;28;20408;-77
2022/12/25 11:46:16;;;;;;;11.18;6.50;;;;;;;15.87;47.89;101182.44;5028704;28;20102;-75
2022/12/25 11:48:54;;;;;;;25.75;6.63;;;;;;;15.85;47.89;101189.84;5028660;28;20535;-75
2022/12/25 11:51:24;;;;;;;12.38;5.07;;;;;;;15.75;47.83;101174.44;5028472;28;20096;-76
2022/12/25 11:53:52;;;;;;;10.45;5.40;;;;;;;15.81;48.12;101177.59;5029249;28;20112;-75
2022/12/25 11:56:24;;;;;;;15.02;9.45;;;;;;;15.85;48.23;101185.28;5029062;28;20035;-75
2022/12/25 11:59:07;;;;;;;24.10;6.60;;;;;;;15.94;47.98;101189.81;5028446;28;20029;-75
2022/12/25 12:01:41;;;;;;;6.25;4.28;;;;;;;15.96;47.22;101193.25;5028759;28;20108;-75
2022/12/25 12:04:30;;;;;;;21.67;6.45;;;;;;;15.95;46.71;101202.41;5028517;28;20126;-75
2022/12/25 12:07:26;;;;;;;6.40;4.88;;;;;;;15.96;46.54;101201.38;5028409;28;20404;-75
2022/12/25 12:10:15;;;;;;;11.85;4.80;;;;;;;15.89;45.80;101213.84;5028710;28;20045;-76
2022/12/25 12:12:52;;;;;;;15.25;5.50;;;;;;;15.83;46.09;101218.97;5028233;28;20026;-74
2022/12/25 12:15:27;;;;;;;17.48;5.60;;;;;;;15.81;45.84;101210.97;5028015;28;20044;-73
2022/12/25 12:17:52;;;;;;;7.20;4.88;;;;;;;15.76;45.79;101221.41;5030549;28;20026;-75
2022/12/25 12:20:33;;;;;;;11.57;5.10;;;;;;;15.70;46.27;101216.56;5032248;28;20025;-75
2022/12/25 12:23:00;;;;;;;8.27;4.80;;;;;;;15.69;46.32;101214.84;5032013;28;20026;-75
2022/12/25 12:25:27;;;;;;;13.43;5.32;;;;;;;15.71;46.39;101221.84;5031976;28;20091;-75
2022/12/25 12:27:56;;;;;;;10.70;4.85;;;;;;;15.74;46.50;101224.28;5031834;28;20033;-75
2022/12/25 12:30:31;;;;;;;9.35;5.25;;;;;;;15.83;46.54;101227.97;5032501;28;20035;-73
2022/12/25 12:33:04;;;;;;;7.57;5.05;;;;;;;15.81;47.03;101227.25;5031744;28;20045;-74
2022/12/25 12:35:38;;;;;;;11.15;5.63;;;;;;;15.56;47.12;101188.03;5032024;28;20030;-74
2022/12/25 12:38:13;;;;;;;9.70;5.28;;;;;;;15.78;47.20;101222.97;5031623;28;20418;-75
2022/12/25 12:40:52;;;;;;;18.63;9.07;;;;;;;15.81;47.26;101221.81;5031948;28;20033;-75
2022/12/25 12:43:30;;;;;;;11.75;6.25;;;;;;;15.83;47.09;101235.25;5031708;28;20071;-75
2022/12/25 12:45:59;;;;;;;14.63;5.45;;;;;;;15.76;47.28;101229.53;5034942;28;20025;-74
2022/12/25 12:48:28;;;;;;;7.47;4.72;;;;;;;15.77;47.03;101226.69;5047665;28;20021;-75
2022/12/25 12:51:12;;;;;;;10.35;5.63;;;;;;;15.70;46.94;101225.56;5052428;28;20051;-75
2022/12/25 12:53:40;;;;;;;19.05;6.10;;;;;;;15.59;46.58;101219.44;5050043;28;20107;-75
2022/12/25 12:56:16;;;;;;;7.32;4.57;;;;;;;15.69;46.40;101239.25;5052845;28;20089;-77
2022/12/25 12:58:48;;;;;;;13.32;4.80;;;;;;;15.67;46.16;101252.09;5055972;28;20573;-74
2022/12/25 13:01:39;;;;;;;5.50;3.65;;;;;;;15.59;45.71;101250.13;5050890;28;20045;-74
2022/12/25 13:04:49;;;;;;;16.63;4.30;;;;;;;15.47;45.74;101256.63;5048326;28;20040;-74
2022/12/25 13:07:51;;;;;;;4.88;3.35;;;;;;;15.35;46.03;101257.72;5028796;28;20064;-74